Time;durP1;ratioP1;P1;durP2;ratioP2;P2;SDS_P1;SDS_P2;PMS_P1;PMS_P2;Temp;Humidity;BMP_temperature;BMP_pressure;BME280_temperature;BME280_humidity;BME280_pressure;Samples;Min_cycle;Max_cycle;Signal;HPM_P1;HPM_P2
2023/12/08 00:00:48;;;;;;;29.75;19.33;;;;;;;15.71;44.29;100891.22;5030516;28;20056;-37
2023/12/08 00:03:15;;;;;;;28.73;19.35;;;;;;;15.73;44.57;100891.09;5032745;28;20430;-38
2023/12/08 00:05:42;;;;;;;27.17;18.52;;;;;;;15.73;45.19;100902.63;5029876;28;20380;-38
2023/12/08 00:08:09;;;;;;;27.23;17.58;;;;;;;15.74;44.03;100890.94;5028704;28;20068;-38
2023/12/08 00:10:35;;;;;;;29.08;18.88;;;;;;;15.74;44.93;100872.22;5030323;28;20123;-38
2023/12/08 00:13:02;;;;;;;27.85;17.63;;;;;;;15.74;44.57;100864.22;5026731;28;20433;-38
2023/12/08 00:15:28;;;;;;;25.50;17.45;;;;;;;15.74;45.18;100858.88;5028322;28;20103;-38
2023/12/08 00:17:55;;;;;;;25.63;17.20;;;;;;;15.75;45.31;100841.84;5029701;28;20081;-38
2023/12/08 00:20:23;;;;;;;28.63;18.75;;;;;;;15.77;44.76;100842.56;5029219;28;20147;-38
2023/12/08 00:22:50;;;;;;;25.70;17.10;;;;;;;15.80;44.58;100830.78;5031534;28;20434;-38
2023/12/08 00:25:17;;;;;;;28.77;17.48;;;;;;;15.82;45.23;100822.59;5029136;28;20194;-38
2023/12/08 00:27:43;;;;;;;23.50;16.15;;;;;;;15.87;45.02;100815.00;5031532;28;20053;-38
2023/12/08 00:30:12;;;;;;;23.95;16.42;;;;;;;15.90;44.21;100814.72;5031079;28;20082;-38
2023/12/08 00:32:38;;;;;;;22.95;16.20;;;;;;;15.93;44.09;100811.78;5028520;28;20141;-38
2023/12/08 00:35:06;;;;;;;22.90;15.43;;;;;;;15.97;44.00;100814.03;5030403;28;20042;-38
2023/12/08 00:37:33;;;;;;;23.10;15.30;;;;;;;15.99;43.85;100817.38;5029504;28;20054;-38
2023/12/08 00:40:00;;;;;;;20.65;14.40;;;;;;;16.04;44.61;100803.63;5027717;28;20140;-38
2023/12/08 00:42:27;;;;;;;26.35;16.65;;;;;;;16.06;44.56;100790.94;5027118;28;20138;-38
2023/12/08 00:44:54;;;;;;;21.00;14.43;;;;;;;16.07;44.51;100787.28;5029994;28;20087;-38
2023/12/08 00:47:21;;;;;;;24.23;15.50;;;;;;;16.07;44.66;100779.25;5032503;28;20049;-38
2023/12/08 00:49:47;;;;;;;21.40;14.13;;;;;;;16.06;44.26;100782.09;5034154;28;20045;-38
2023/12/08 00:52:14;;;;;;;23.05;14.65;;;;;;;16.05;44.78;100767.88;5036389;28;20049;-38
2023/12/08 00:54:41;;;;;;;21.33;14.60;;;;;;;16.03;43.78;100784.03;5030276;28;20311;-38
2023/12/08 00:57:08;;;;;;;25.45;14.75;;;;;;;16.01;44.67;100770.00;5035800;28;20154;-38
2023/12/08 00:59:35;;;;;;;19.05;13.77;;;;;;;16.00;44.87;100775.47;5034705;28;20486;-38
2023/12/08 01:02:01;;;;;;;20.63;14.07;;;;;;;15.97;45.04;100779.28;5034366;28;20439;-38
2023/12/08 01:04:28;;;;;;;20.23;13.88;;;;;;;15.98;44.05;100790.81;5030226;28;20049;-38
2023/12/08 01:06:55;;;;;;;19.92;13.77;;;;;;;15.96;44.71;100788.28;5032626;28;20144;-38
2023/12/08 01:09:21;;;;;;;19.38;13.27;;;;;;;15.95;44.84;100788.41;5036066;28;20053;-38
2023/12/08 01:11:48;;;;;;;18.65;12.82;;;;;;;15.94;43.90;100792.09;5037571;28;20127;-38
2023/12/08 01:14:14;;;;;;;20.58;14.00;;;;;;;15.93;44.23;100799.25;5033395;28;20135;-38
2023/12/08 01:16:41;;;;;;;18.65;12.95;;;;;;;15.93;44.74;100785.06;5031568;28;20102;-38
2023/12/08 01:19:10;;;;;;;19.77;13.23;;;;;;;15.91;45.21;100787.00;5032789;28;20049;-38
2023/12/08 01:21:38;;;;;;;21.10;13.88;;;;;;;15.89;44.79;100787.16;5034588;28;20052;-38
2023/12/08 01:24:05;;;;;;;20.73;13.32;;;;;;;15.88;44.80;100787.28;5033989;28;20119;-38
2023/12/08 01:26:32;;;;;;;18.83;12.82;;;;;;;15.86;44.85;100781.25;5031258;28;20049;-38
2023/12/08 01:28:59;;;;;;;19.50;13.02;;;;;;;15.84;44.79;100776.06;5037514;28;20140;-38
2023/12/08 01:31:26;;;;;;;18.95;12.63;;;;;;;15.81;44.18;100771.00;5032886;28;20054;-38
2023/12/08 01:33:52;;;;;;;19.88;12.70;;;;;;;15.82;45.00;100787.88;5030048;28;20436;-38
2023/12/08 01:36:19;;;;;;;17.45;12.27;;;;;;;15.84;44.64;100791.22;5032815;28;20045;-38
2023/12/08 01:39:06;;;;;;;16.58;11.77;;;;;;;15.88;45.35;100790.81;5036017;28;20421;-38
2023/12/08 01:41:33;;;;;;;18.90;12.85;;;;;;;15.93;45.30;100790.41;5035951;28;20081;-38
2023/12/08 01:44:00;;;;;;;16.77;11.73;;;;;;;15.96;44.63;100784.75;5034977;28;20045;-38
2023/12/08 01:46:29;;;;;;;17.08;11.75;;;;;;;16.02;45.08;100797.56;5032036;28;20422;-38
2023/12/08 01:48:55;;;;;;;17.30;11.57;;;;;;;16.07;44.73;100794.47;5032041;28;20045;-38
2023/12/08 01:51:24;;;;;;;18.90;11.63;;;;;;;16.11;44.10;100794.03;5031474;28;20135;-38
2023/12/08 01:53:50;;;;;;;16.38;10.35;;;;;;;16.15;44.59;100792.75;5034634;28;20136;-38
2023/12/08 01:56:17;;;;;;;18.65;11.55;;;;;;;16.16;44.75;100781.09;5031156;28;20109;-38
2023/12/08 01:58:44;;;;;;;15.27;10.57;;;;;;;16.18;44.47;100788.97;5028233;28;20080;-38
2023/12/08 02:01:11;;;;;;;15.63;11.00;;;;;;;16.17;44.72;100785.44;5037196;28;20111;-38
2023/12/08 02:03:39;;;;;;;17.48;10.88;;;;;;;16.16;44.58;100783.78;5033303;28;20095;-38
2023/12/08 02:06:07;;;;;;;15.40;10.63;;;;;;;16.14;44.00;100777.72;5035856;28;20041;-38
2023/12/08 02:08:33;;;;;;;16.27;10.85;;;;;;;16.12;44.16;100758.31;5032769;28;20056;-38
2023/12/08 02:11:00;;;;;;;13.70;9.68;;;;;;;16.10;43.73;100762.94;5031480;28;20041;-38
2023/12/08 02:13:27;;;;;;;15.13;11.27;;;;;;;16.10;43.65;100760.25;5029882;28;20048;-38
2023/12/08 02:16:29;;;;;;;13.90;9.90;;;;;;;16.08;43.89;100756.03;5033358;28;20072;-38
2023/12/08 02:18:57;;;;;;;16.50;10.88;;;;;;;16.08;44.60;100754.22;5020904;28;20132;-38
2023/12/08 02:21:24;;;;;;;13.77;10.10;;;;;;;16.06;43.92;100742.81;5031815;28;20062;-38
2023/12/08 02:23:51;;;;;;;14.60;10.20;;;;;;;16.05;44.71;100727.78;5034268;28;20143;-38
2023/12/08 02:26:19;;;;;;;14.40;10.13;;;;;;;16.03;44.45;100717.22;5034464;28;20061;-38
2023/12/08 02:28:46;;;;;;;14.77;10.70;;;;;;;16.02;44.87;100714.69;5031739;28;20500;-38
2023/12/08 02:31:19;;;;;;;14.48;10.07;;;;;;;16.02;43.74;100712.00;5034201;28;20073;-38
2023/12/08 02:33:48;;;;;;;13.77;9.75;;;;;;;15.98;44.80;100691.91;5033257;28;20105;-38
2023/12/08 02:36:17;;;;;;;12.90;8.93;;;;;;;15.97;44.32;100685.72;5027533;28;20096;-38
2023/12/08 02:38:46;;;;;;;14.02;9.60;;;;;;;15.96;44.79;100689.38;5033571;28;20045;-38
2023/12/08 02:41:13;;;;;;;14.88;9.63;;;;;;;15.95;44.88;100694.84;5030186;28;20068;-38
2023/12/08 02:43:39;;;;;;;13.88;9.32;;;;;;;15.93;44.97;100687.00;5032755;28;20053;-38
2023/12/08 02:46:06;;;;;;;13.45;9.98;;;;;;;15.93;44.81;100688.81;5034077;28;20080;-38
2023/12/08 02:48:32;;;;;;;14.55;9.60;;;;;;;15.92;44.11;100689.78;5028159;28;20334;-38
2023/12/08 02:50:59;;;;;;;13.70;9.60;;;;;;;15.90;44.84;100689.94;5032116;28;20052;-38
2023/12/08 02:53:26;;;;;;;11.80;8.50;;;;;;;15.91;44.73;100680.09;5038319;28;20102;-38
2023/12/08 02:55:52;;;;;;;12.98;9.48;;;;;;;15.92;44.15;100671.94;5031133;28;20081;-38
2023/12/08 02:58:19;;;;;;;11.98;8.65;;;;;;;15.94;44.12;100667.28;5032354;28;20564;-38
2023/12/08 03:00:46;;;;;;;12.32;8.95;;;;;;;15.97;44.65;100668.84;5032345;28;20133;-38
2023/12/08 03:03:12;;;;;;;12.18;8.63;;;;;;;16.02;44.49;100671.91;5030814;28;20348;-38
2023/12/08 03:05:39;;;;;;;12.75;8.25;;;;;;;16.06;44.83;100657.28;5034366;28;20106;-38
2023/12/08 03:08:06;;;;;;;12.52;8.75;;;;;;;16.11;44.59;100660.34;5039678;28;20132;-38
2023/12/08 03:10:32;;;;;;;11.38;8.63;;;;;;;16.16;44.35;100655.44;5030990;28;20444;-38
2023/12/08 03:12:59;;;;;;;14.13;8.52;;;;;;;16.21;44.53;100649.63;5025144;28;20049;-38
2023/12/08 03:15:26;;;;;;;10.60;7.60;;;;;;;16.24;44.52;100655.53;5028558;28;20191;-38
2023/12/08 03:17:52;;;;;;;11.98;8.50;;;;;;;16.26;44.50;100658.88;5026964;28;20068;-38
2023/12/08 03:20:19;;;;;;;10.98;8.10;;;;;;;16.26;43.69;100653.53;5028006;28;20045;-38
2023/12/08 03:22:46;;;;;;;10.65;7.57;;;;;;;16.27;43.51;100659.72;5033496;28;20081;-38
2023/12/08 03:25:13;;;;;;;11.45;7.78;;;;;;;16.26;44.24;100658.06;5030518;28;20056;-38
2023/12/08 03:27:39;;;;;;;12.27;8.38;;;;;;;16.26;44.18;100660.72;5032847;28;20111;-38
2023/12/08 03:30:06;;;;;;;10.30;7.43;;;;;;;16.26;43.76;100666.06;5028007;28;20081;-38
2023/12/08 03:32:33;;;;;;;10.35;7.90;;;;;;;16.24;43.90;100671.59;5027772;28;21294;-38
2023/12/08 03:35:00;;;;;;;11.02;7.15;;;;;;;16.22;43.62;100662.84;5029154;28;20061;-38
2023/12/08 03:37:26;;;;;;;10.65;7.85;;;;;;;16.21;44.27;100661.16;5033042;28;20049;-38
2023/12/08 03:39:54;;;;;;;9.88;7.30;;;;;;;16.20;43.39;100656.81;5030130;28;20053;-38
2023/12/08 03:42:20;;;;;;;10.32;7.35;;;;;;;16.19;44.30;100649.75;5027254;28;20049;-38
2023/12/08 03:44:47;;;;;;;10.13;7.43;;;;;;;16.18;44.58;100658.78;5033307;28;20305;-38
2023/12/08 03:47:13;;;;;;;9.00;6.88;;;;;;;16.17;44.08;100648.25;5031948;28;20048;-38
2023/12/08 03:49:40;;;;;;;10.38;7.57;;;;;;;16.15;44.53;100645.69;5034124;28;20049;-38
2023/12/08 03:52:07;;;;;;;10.30;6.78;;;;;;;16.13;43.76;100645.00;5030233;28;20136;-38
2023/12/08 03:54:34;;;;;;;9.20;6.95;;;;;;;16.12;44.27;100645.13;5028111;28;20096;-38
2023/12/08 03:57:00;;;;;;;10.30;7.18;;;;;;;16.10;44.30;100642.63;5024433;28;20108;-38
2023/12/08 03:59:27;;;;;;;9.63;6.82;;;;;;;16.08;44.64;100639.28;5029339;28;20099;-38
2023/12/08 04:01:53;;;;;;;9.15;6.20;;;;;;;16.07;44.34;100642.91;5025971;28;20073;-38
2023/12/08 04:04:20;;;;;;;10.63;7.57;;;;;;;16.06;44.24;100641.22;5030492;28;20856;-38
2023/12/08 04:06:54;;;;;;;8.68;6.18;;;;;;;16.04;43.80;100638.72;5029311;28;20053;-38
2023/12/08 04:09:20;;;;;;;8.38;6.68;;;;;;;16.04;44.03;100644.06;5030686;28;20073;-39
2023/12/08 04:11:47;;;;;;;8.52;6.50;;;;;;;16.06;44.52;100635.03;5027085;28;20355;-38
2023/12/08 04:14:13;;;;;;;9.30;6.47;;;;;;;16.07;44.21;100616.16;5030825;28;20059;-38
2023/12/08 04:16:40;;;;;;;7.93;6.45;;;;;;;16.11;43.99;100632.78;5032357;28;20111;-38
2023/12/08 04:19:07;;;;;;;9.32;7.25;;;;;;;16.13;44.81;100618.28;5031863;28;20049;-38
2023/12/08 04:21:33;;;;;;;9.40;6.65;;;;;;;16.15;43.81;100621.63;5029682;28;20058;-38
2023/12/08 04:24:00;;;;;;;8.32;6.45;;;;;;;16.18;44.60;100632.03;5033786;28;20080;-38
2023/12/08 04:26:26;;;;;;;9.27;6.50;;;;;;;16.22;43.79;100635.25;5036001;28;20065;-38
2023/12/08 04:28:53;;;;;;;7.57;5.82;;;;;;;16.25;44.52;100632.31;5038386;28;20045;-38
2023/12/08 04:31:20;;;;;;;10.63;6.43;;;;;;;16.26;43.25;100628.63;5034387;28;20146;-38
2023/12/08 04:33:47;;;;;;;8.88;6.05;;;;;;;16.28;43.64;100632.84;5032459;28;20402;-38
2023/12/08 04:36:15;;;;;;;8.55;6.20;;;;;;;16.29;43.60;100645.22;5031097;28;20137;-38
2023/12/08 04:38:42;;;;;;;8.95;6.20;;;;;;;16.28;43.95;100651.56;5034933;28;20046;-38
2023/12/08 04:41:08;;;;;;;7.38;5.80;;;;;;;16.27;43.98;100659.72;5036953;28;20056;-38
2023/12/08 04:43:35;;;;;;;7.10;5.47;;;;;;;16.25;43.46;100665.22;5030624;28;20061;-38
2023/12/08 04:46:02;;;;;;;8.90;6.10;;;;;;;16.25;43.47;100680.44;5034663;28;20321;-38
2023/12/08 04:48:29;;;;;;;8.25;6.07;;;;;;;16.22;43.65;100670.88;5028441;28;20072;-38
2023/12/08 04:50:57;;;;;;;7.75;5.65;;;;;;;16.20;44.48;100656.81;5038835;28;20058;-38
2023/12/08 04:53:24;;;;;;;8.20;6.05;;;;;;;16.18;44.54;100640.06;5033404;28;20052;-38
2023/12/08 04:55:50;;;;;;;7.10;5.70;;;;;;;16.15;43.86;100637.66;5034004;28;20103;-38
2023/12/08 04:58:17;;;;;;;8.00;6.05;;;;;;;16.14;44.39;100643.19;5034965;28;20076;-38
2023/12/08 05:00:43;;;;;;;7.05;5.38;;;;;;;16.12;44.72;100647.81;5029628;28;20389;-38
2023/12/08 05:03:10;;;;;;;7.65;5.85;;;;;;;16.10;43.53;100641.78;5034123;28;20103;-38
2023/12/08 05:05:38;;;;;;;10.98;6.22;;;;;;;16.09;44.12;100645.47;5030924;28;20056;-38
2023/12/08 05:08:05;;;;;;;7.50;5.82;;;;;;;16.06;44.25;100651.94;5034907;28;20171;-38
2023/12/08 05:10:32;;;;;;;8.35;5.20;;;;;;;16.04;43.72;100636.03;5036319;28;20658;-38
2023/12/08 05:12:59;;;;;;;8.40;6.05;;;;;;;16.02;43.82;100624.63;5032624;28;20135;-38
2023/12/08 05:15:26;;;;;;;7.40;5.55;;;;;;;15.99;44.13;100614.22;5037285;28;20053;-38
2023/12/08 05:17:52;;;;;;;7.18;5.85;;;;;;;15.98;44.19;100609.03;5032381;28;20057;-38
2023/12/08 05:20:19;;;;;;;8.80;6.00;;;;;;;15.98;44.93;100606.38;5032752;28;20049;-38
2023/12/08 05:22:45;;;;;;;8.18;5.75;;;;;;;15.96;44.86;100613.66;5034188;28;20085;-38
2023/12/08 05:25:12;;;;;;;8.93;5.68;;;;;;;15.94;44.86;100621.84;5026560;28;20137;-38
2023/12/08 05:27:39;;;;;;;10.20;6.10;;;;;;;15.93;44.14;100617.50;5036708;28;20060;-38
2023/12/08 05:30:06;;;;;;;9.68;5.80;;;;;;;15.95;44.81;100622.69;5033888;28;20496;-38
2023/12/08 05:32:33;;;;;;;7.30;5.68;;;;;;;15.97;45.12;100631.41;5037826;28;20053;-38
2023/12/08 05:35:00;;;;;;;7.03;5.53;;;;;;;15.99;44.93;100627.59;5033434;28;20049;-38
2023/12/08 05:37:27;;;;;;;7.57;5.85;;;;;;;16.04;44.52;100627.19;5033587;28;20160;-38
2023/12/08 05:39:54;;;;;;;6.80;5.35;;;;;;;16.07;45.06;100620.69;5032528;28;20081;-38
2023/12/08 05:42:21;;;;;;;8.18;5.35;;;;;;;16.11;44.28;100624.75;5032834;28;20549;-38
2023/12/08 05:44:47;;;;;;;6.97;5.18;;;;;;;16.13;43.98;100622.78;5031104;28;20081;-38
2023/12/08 05:47:14;;;;;;;7.53;5.57;;;;;;;16.15;44.63;100635.00;5031664;28;20041;-37
2023/12/08 05:49:40;;;;;;;5.38;4.57;;;;;;;16.16;44.54;100628.69;5031322;28;20049;-38
2023/12/08 05:52:09;;;;;;;8.55;5.15;;;;;;;16.16;44.82;100623.34;5027841;28;20045;-38
2023/12/08 05:54:36;;;;;;;6.45;5.03;;;;;;;16.18;44.28;100623.19;5028066;28;20368;-38
2023/12/08 05:57:03;;;;;;;6.50;5.10;;;;;;;16.17;44.13;100621.50;5026525;28;20073;-38
2023/12/08 05:59:29;;;;;;;8.48;5.57;;;;;;;16.16;43.63;100620.66;5028755;28;20049;-38
2023/12/08 06:01:56;;;;;;;7.32;5.25;;;;;;;16.15;43.84;100624.31;5029923;28;20483;-38
2023/12/08 06:04:22;;;;;;;6.97;4.88;;;;;;;16.13;44.56;100634.31;5030317;28;20445;-38
2023/12/08 06:06:49;;;;;;;6.90;5.03;;;;;;;16.12;43.96;100629.97;5026595;28;20444;-38
2023/12/08 06:09:16;;;;;;;5.95;4.38;;;;;;;16.10;44.30;100637.28;5031654;28;20140;-38
2023/12/08 06:11:42;;;;;;;6.90;5.07;;;;;;;16.09;44.95;100640.94;5030260;28;20053;-38
2023/12/08 06:14:09;;;;;;;8.05;5.82;;;;;;;16.08;44.05;100647.28;5029860;28;20060;-38
2023/12/08 06:16:36;;;;;;;6.78;4.95;;;;;;;16.07;44.38;100644.75;5028741;28;20081;-38
2023/12/08 06:19:04;;;;;;;7.35;5.53;;;;;;;16.06;44.57;100637.72;5031096;28;20045;-38
2023/12/08 06:21:31;;;;;;;6.93;4.97;;;;;;;16.03;45.22;100636.16;5026797;28;20046;-38
2023/12/08 06:24:00;;;;;;;7.22;5.18;;;;;;;16.02;45.44;100640.69;5026597;28;20049;-38
2023/12/08 06:26:29;;;;;;;6.75;5.25;;;;;;;16.01;44.63;100639.00;5026786;28;20095;-38
2023/12/08 06:28:56;;;;;;;7.07;5.35;;;;;;;16.00;44.89;100637.31;5035487;28;20099;-38
2023/12/08 06:31:22;;;;;;;7.00;4.70;;;;;;;15.97;45.45;100637.59;5032821;28;20057;-38
2023/12/08 06:33:49;;;;;;;6.80;5.28;;;;;;;15.96;44.37;100637.72;5033365;28;20080;-38
2023/12/08 06:36:35;;;;;;;7.25;5.10;;;;;;;15.95;44.88;100639.56;5029956;28;20110;-38
2023/12/08 06:39:03;;;;;;;8.18;4.93;;;;;;;15.94;45.69;100639.72;5035554;28;20070;-38
2023/12/08 06:41:32;;;;;;;6.88;4.72;;;;;;;15.92;45.76;100633.66;5033944;28;20052;-38
2023/12/08 06:43:58;;;;;;;6.35;4.95;;;;;;;15.90;45.75;100646.34;5029369;28;20076;-38
2023/12/08 06:46:25;;;;;;;7.60;4.88;;;;;;;15.91;45.06;100651.53;5029789;28;20061;-38
2023/12/08 06:48:51;;;;;;;6.35;4.60;;;;;;;15.98;44.84;100646.47;5026043;28;20053;-38
2023/12/08 06:51:18;;;;;;;6.22;4.78;;;;;;;16.06;45.71;100645.75;5024608;28;20057;-38
2023/12/08 06:53:45;;;;;;;6.57;5.22;;;;;;;16.15;45.61;100645.69;5027857;28;20045;-38
2023/12/08 06:56:11;;;;;;;5.90;4.63;;;;;;;16.24;45.39;100646.66;5025055;28;20383;-38
2023/12/08 06:58:38;;;;;;;7.35;4.80;;;;;;;16.35;44.80;100659.00;5022984;28;20050;-38
2023/12/08 07:01:05;;;;;;;6.50;4.57;;;;;;;16.44;44.34;100652.75;5026893;28;20316;-38
2023/12/08 07:03:32;;;;;;;5.45;3.97;;;;;;;16.53;44.72;100643.84;5026958;28;20045;-38
2023/12/08 07:05:59;;;;;;;7.25;4.80;;;;;;;16.62;44.33;100645.63;5025713;28;20046;-38
2023/12/08 07:08:26;;;;;;;6.55;4.43;;;;;;;16.73;44.65;100641.94;5025572;28;20049;-38
2023/12/08 07:10:52;;;;;;;6.57;4.78;;;;;;;16.81;44.61;100642.03;5024004;28;20050;-38
2023/12/08 07:13:19;;;;;;;9.57;7.25;;;;;;;16.89;44.49;100635.94;5023299;28;20224;-38
2023/12/08 07:15:45;;;;;;;14.80;9.82;;;;;;;16.97;44.31;100642.22;5025737;28;20060;-38
2023/12/08 07:18:12;;;;;;;18.75;12.35;;;;;;;17.05;44.78;100646.81;5024803;28;20042;-38
2023/12/08 07:20:39;;;;;;;21.23;13.43;;;;;;;17.12;44.24;100644.34;5029208;28;20045;-38
2023/12/08 07:23:06;;;;;;;20.80;14.07;;;;;;;17.18;44.87;100641.91;5027016;28;20053;-38
2023/12/08 07:25:33;;;;;;;21.95;14.55;;;;;;;17.24;44.70;100643.97;5029090;28;20179;-38
2023/12/08 07:27:59;;;;;;;20.58;14.32;;;;;;;17.33;44.51;100652.09;5027043;28;20410;-38
2023/12/08 07:30:26;;;;;;;27.10;18.55;;;;;;;17.38;44.74;100660.50;5025566;28;20136;-37
2023/12/08 07:32:53;;;;;;;31.33;19.58;;;;;;;17.43;44.67;100667.09;5022163;28;20049;-37
2023/12/08 07:35:20;;;;;;;32.40;19.73;;;;;;;17.47;44.57;100671.13;5022484;28;20156;-38
2023/12/08 07:37:46;;;;;;;26.35;17.17;;;;;;;17.50;44.60;100670.00;5019150;28;20055;-38
2023/12/08 07:40:13;;;;;;;29.20;19.15;;;;;;;17.52;43.89;100668.00;5024330;28;20107;-37
2023/12/08 07:42:43;;;;;;;29.63;18.67;;;;;;;17.52;44.18;100666.16;5020468;28;20045;-37
2023/12/08 07:45:10;;;;;;;25.10;16.33;;;;;;;17.51;44.00;100660.94;5022853;28;20060;-38
2023/12/08 07:47:37;;;;;;;27.92;16.98;;;;;;;17.49;44.01;100662.97;5022715;28;20096;-38
2023/12/08 07:50:05;;;;;;;26.27;17.40;;;;;;;17.46;43.80;100666.78;5024153;28;20045;-37
2023/12/08 07:52:33;;;;;;;26.55;17.30;;;;;;;17.42;43.41;100669.94;5026624;28;20453;-38
2023/12/08 07:54:59;;;;;;;27.08;17.92;;;;;;;17.37;44.02;100670.41;5037828;28;20103;-38
2023/12/08 07:57:26;;;;;;;24.67;16.35;;;;;;;17.28;43.78;100672.13;5022667;28;20050;-38
2023/12/08 07:59:53;;;;;;;27.85;18.38;;;;;;;17.21;43.74;100678.28;5023772;28;20046;-38
2023/12/08 08:02:20;;;;;;;28.02;18.55;;;;;;;17.15;44.35;100694.94;5022991;28;20058;-38
2023/12/08 08:04:47;;;;;;;26.70;18.50;;;;;;;17.08;44.31;100688.50;5025621;28;20092;-38
2023/12/08 08:07:13;;;;;;;30.80;19.63;;;;;;;17.02;44.09;100697.97;5021551;28;20053;-38
2023/12/08 08:09:40;;;;;;;26.63;18.27;;;;;;;16.95;44.29;100692.38;5023824;28;20057;-38
2023/12/08 08:12:07;;;;;;;28.08;18.95;;;;;;;16.91;44.36;100695.50;5022012;28;20368;-38
2023/12/08 08:14:33;;;;;;;24.30;17.83;;;;;;;16.86;44.66;100701.31;5024904;28;20478;-38
2023/12/08 08:17:01;;;;;;;30.85;19.40;;;;;;;16.81;44.52;100702.78;5026617;28;20038;-38
2023/12/08 08:19:28;;;;;;;27.88;18.20;;;;;;;16.77;44.94;100702.22;5025013;28;20068;-38
2023/12/08 08:21:55;;;;;;;27.05;17.75;;;;;;;16.75;44.54;100701.50;5024749;28;20056;-38
2023/12/08 08:24:42;;;;;;;26.73;17.80;;;;;;;16.75;44.39;100709.53;5025929;28;20325;-38
2023/12/08 08:27:09;;;;;;;25.67;17.20;;;;;;;16.76;44.57;100711.22;5022502;28;20058;-38
2023/12/08 08:29:35;;;;;;;25.52;16.33;;;;;;;16.77;44.52;100704.91;5025159;28;20065;-38
2023/12/08 08:32:02;;;;;;;25.15;16.27;;;;;;;16.80;44.15;100709.09;5023537;28;20049;-38
2023/12/08 08:34:29;;;;;;;26.63;17.70;;;;;;;16.83;44.36;100714.16;5023602;28;20103;-39
2023/12/08 08:36:56;;;;;;;29.10;18.38;;;;;;;16.86;44.23;100709.34;5020763;28;20057;-38
2023/12/08 08:39:23;;;;;;;28.38;18.70;;;;;;;16.91;44.31;100716.94;5021272;28;20073;-38
2023/12/08 08:41:50;;;;;;;30.25;18.63;;;;;;;16.93;44.80;100707.75;5019309;28;20132;-37
2023/12/08 08:44:16;;;;;;;28.50;18.83;;;;;;;16.97;44.58;100708.31;5021972;28;20049;-37
2023/12/08 08:46:44;;;;;;;33.40;20.98;;;;;;;17.00;44.36;100722.25;5021911;28;20095;-38
2023/12/08 08:49:10;;;;;;;31.88;20.48;;;;;;;17.03;44.31;100713.06;5022019;28;20053;-38
2023/12/08 08:51:38;;;;;;;31.90;19.88;;;;;;;17.04;44.07;100722.75;5028556;28;20056;-38
2023/12/08 08:54:04;;;;;;;33.88;21.10;;;;;;;17.08;44.48;100717.94;5025148;28;20353;-37
2023/12/08 08:56:31;;;;;;;34.10;22.17;;;;;;;17.10;43.85;100724.00;5025879;28;20050;-37
2023/12/08 08:58:58;;;;;;;34.70;20.25;;;;;;;17.11;44.26;100720.34;5029266;28;20048;-37
2023/12/08 09:01:24;;;;;;;33.45;21.10;;;;;;;17.10;44.76;100727.53;5027578;28;20057;-37
2023/12/08 09:03:51;;;;;;;35.40;22.17;;;;;;;17.09;44.79;100727.69;5024205;28;20081;-37
2023/12/08 09:06:18;;;;;;;35.05;21.80;;;;;;;17.06;44.63;100731.50;5023727;28;20226;-38
2023/12/08 09:08:45;;;;;;;34.08;21.88;;;;;;;17.03;43.85;100731.78;5027973;28;20053;-37
2023/12/08 09:11:13;;;;;;;37.13;22.30;;;;;;;16.97;44.55;100735.94;5025541;28;20103;-38
2023/12/08 09:13:40;;;;;;;34.45;21.92;;;;;;;16.92;44.28;100730.16;5030351;28;20060;-38
2023/12/08 09:16:06;;;;;;;32.38;20.45;;;;;;;16.89;44.19;100727.78;5034952;28;20114;-38
2023/12/08 09:18:33;;;;;;;31.42;20.10;;;;;;;16.85;44.94;100731.75;5028339;28;20057;-38
2023/12/08 09:21:00;;;;;;;31.85;20.88;;;;;;;16.81;44.63;100730.38;5027212;28;20050;-38
2023/12/08 09:23:27;;;;;;;35.40;20.95;;;;;;;16.77;44.77;100735.19;5029335;28;20049;-37
2023/12/08 09:25:53;;;;;;;31.63;20.38;;;;;;;16.75;45.62;100733.63;5031515;28;20095;-38
2023/12/08 09:28:20;;;;;;;33.88;20.30;;;;;;;16.72;44.93;100734.75;5032025;28;20473;-38
2023/12/08 09:30:47;;;;;;;30.33;19.40;;;;;;;16.69;45.37;100740.41;5037521;28;20054;-38
2023/12/08 09:33:14;;;;;;;32.08;19.55;;;;;;;16.66;44.94;100739.84;5032868;28;20054;-38
2023/12/08 09:35:41;;;;;;;31.20;19.40;;;;;;;16.65;44.63;100740.84;5029738;28;20056;-38
2023/12/08 09:38:08;;;;;;;32.90;20.27;;;;;;;16.64;45.63;100739.13;5034432;28;21181;-38
2023/12/08 09:40:44;;;;;;;35.65;21.42;;;;;;;16.63;45.23;100743.66;5029483;28;20115;-38
2023/12/08 09:43:18;;;;;;;32.85;21.25;;;;;;;16.63;45.23;100751.66;5033653;28;20073;-38
2023/12/08 09:45:46;;;;;;;36.30;20.40;;;;;;;16.66;45.66;100748.72;5033367;28;20046;-38
2023/12/08 09:48:13;;;;;;;37.80;22.02;;;;;;;16.69;45.44;100753.78;5033861;28;20057;-38
2023/12/08 09:50:41;;;;;;;36.75;21.25;;;;;;;16.76;45.95;100757.59;5034754;28;20081;-38
2023/12/08 09:53:08;;;;;;;41.45;22.05;;;;;;;16.85;45.08;100753.19;5033766;28;20049;-38
2023/12/08 09:55:37;;;;;;;37.88;22.00;;;;;;;16.92;44.96;100754.25;5026629;28;20115;-38
2023/12/08 09:58:06;;;;;;;38.28;23.40;;;;;;;17.01;44.97;100752.53;5028789;28;20046;-38
2023/12/08 10:00:33;;;;;;;44.97;24.83;;;;;;;17.09;44.90;100749.13;5029341;28;20429;-38
2023/12/08 10:03:01;;;;;;;44.40;24.48;;;;;;;17.14;45.46;100744.97;5028714;28;20057;-38
2023/12/08 10:05:27;;;;;;;49.33;25.63;;;;;;;17.17;45.26;100744.69;5026090;28;20121;-38
2023/12/08 10:07:54;;;;;;;47.53;26.27;;;;;;;17.19;45.30;100742.69;5027951;28;20089;-38
2023/12/08 10:10:24;;;;;;;48.22;27.60;;;;;;;17.19;44.83;100749.88;5029019;28;20160;-38
2023/12/08 10:12:50;;;;;;;46.05;27.55;;;;;;;17.17;44.89;100750.03;5028266;28;20052;-37
2023/12/08 10:15:18;;;;;;;48.72;28.08;;;;;;;17.12;45.16;100760.34;5024008;28;20409;-38
2023/12/08 10:17:49;;;;;;;47.28;27.60;;;;;;;17.08;45.12;100758.13;5023480;28;20081;-38
2023/12/08 10:20:21;;;;;;;45.83;28.20;;;;;;;17.03;45.56;100758.56;5028437;28;20517;-38
2023/12/08 10:22:48;;;;;;;52.25;28.38;;;;;;;16.99;45.18;100752.66;5021350;28;20060;-38
2023/12/08 10:25:16;;;;;;;49.60;28.65;;;;;;;16.95;45.41;100756.63;5024885;28;20050;-38
2023/12/08 10:27:49;;;;;;;50.88;28.52;;;;;;;16.91;45.71;100751.72;5022483;28;20050;-38
2023/12/08 10:30:17;;;;;;;46.97;27.77;;;;;;;16.88;46.20;100749.34;5024530;28;20225;-38
2023/12/08 10:32:45;;;;;;;49.22;29.00;;;;;;;16.84;45.82;100748.78;5027588;28;20077;-38
2023/12/08 10:35:12;;;;;;;50.90;28.92;;;;;;;16.81;46.49;100756.31;5030178;28;20049;-38
2023/12/08 10:37:40;;;;;;;51.40;28.98;;;;;;;16.78;45.73;100749.41;5030654;28;20041;-38
2023/12/08 10:40:17;;;;;;;49.05;28.73;;;;;;;16.75;45.79;100753.19;5026688;28;20049;-38
2023/12/08 10:42:45;;;;;;;51.45;28.65;;;;;;;16.73;45.98;100751.69;5025701;28;20055;-38
2023/12/08 10:45:13;;;;;;;49.15;28.92;;;;;;;16.73;46.71;100755.19;5024173;28;20072;-38
2023/12/08 10:47:42;;;;;;;48.72;29.33;;;;;;;16.71;46.53;100745.59;5025522;28;20057;-38
2023/12/08 10:50:11;;;;;;;46.05;26.88;;;;;;;16.70;46.28;100743.91;5021986;28;20466;-38
2023/12/08 10:52:39;;;;;;;46.17;27.27;;;;;;;16.68;46.28;100736.03;5021141;28;20057;-38
2023/12/08 10:55:07;;;;;;;43.88;25.98;;;;;;;16.68;46.23;100740.53;5026954;28;20056;-37
2023/12/08 10:57:36;;;;;;;42.38;26.00;;;;;;;16.66;45.88;100735.31;5023664;28;20096;-37
2023/12/08 11:00:24;;;;;;;45.08;26.60;;;;;;;16.65;46.17;100740.84;5022986;28;20042;-37
2023/12/08 11:02:50;;;;;;;42.00;26.45;;;;;;;16.64;46.51;100736.44;5021440;28;20357;-38
2023/12/08 11:05:37;;;;;;;44.42;26.23;;;;;;;16.61;46.89;100742.97;5027930;28;20053;-37
2023/12/08 11:08:12;;;;;;;41.05;25.27;;;;;;;16.62;45.81;100735.78;5026971;28;20128;-37
2023/12/08 11:10:43;;;;;;;39.30;25.02;;;;;;;16.60;46.55;100740.41;5023604;28;20115;-37
2023/12/08 11:13:25;;;;;;;45.33;26.15;;;;;;;16.58;45.97;100727.19;5026153;28;20173;-37
2023/12/08 11:16:30;;;;;;;46.03;25.70;;;;;;;16.56;46.08;100736.34;5028098;28;20053;-38